Time;durP1;ratioP1;P1;durP2;ratioP2;P2;SDS_P1;SDS_P2;PMS_P1;PMS_P2;Temp;Humidity;BMP_temperature;BMP_pressure;BME280_temperature;BME280_humidity;BME280_pressure;Samples;Min_cycle;Max_cycle;Signal;HPM_P1;HPM_P2
2023/01/04 00:01:46;;;;;;;14.38;12.80;;;;;;;6.67;79.83;100527.66;5089938;28;20036;-74
2023/01/04 00:04:14;;;;;;;16.10;14.10;;;;;;;6.66;79.80;100515.38;5108087;28;20066;-73
2023/01/04 00:06:41;;;;;;;15.38;13.77;;;;;;;6.66;79.74;100519.78;5106326;28;20048;-73
2023/01/04 00:09:07;;;;;;;16.23;13.00;;;;;;;6.28;79.58;100466.13;5107238;28;20032;-73
2023/01/04 00:11:34;;;;;;;15.82;13.07;;;;;;;6.26;79.88;100462.66;5108768;28;20055;-74
2023/01/04 00:14:01;;;;;;;14.90;13.30;;;;;;;6.62;79.78;100529.50;5109039;28;20059;-74
2023/01/04 00:16:29;;;;;;;14.43;12.65;;;;;;;6.41;79.75;100514.13;5107334;28;20039;-73
2023/01/04 00:18:56;;;;;;;16.73;14.40;;;;;;;6.58;79.85;100533.09;5109049;28;20059;-73
2023/01/04 00:21:26;;;;;;;16.67;13.95;;;;;;;6.56;79.78;100534.03;5108667;28;20055;-73
2023/01/04 00:23:55;;;;;;;16.92;13.32;;;;;;;6.57;79.95;100530.50;5106802;28;20097;-73
2023/01/04 00:26:24;;;;;;;15.18;13.57;;;;;;;6.53;79.88;100523.56;5107719;28;20044;-73
2023/01/04 00:28:54;;;;;;;16.77;13.98;;;;;;;6.50;79.80;100529.75;5107358;28;20115;-73
2023/01/04 00:31:22;;;;;;;16.25;14.30;;;;;;;6.51;80.06;100528.00;5107367;28;20044;-73
2023/01/04 00:33:49;;;;;;;19.20;15.23;;;;;;;6.48;79.93;100521.00;5106209;28;20050;-73
2023/01/04 00:36:16;;;;;;;16.48;13.85;;;;;;;6.46;79.98;100525.44;5107752;28;20044;-73
2023/01/04 00:38:44;;;;;;;18.58;15.18;;;;;;;6.46;80.06;100525.44;5107113;28;20063;-74
2023/01/04 00:41:12;;;;;;;15.98;13.25;;;;;;;5.69;79.85;100398.84;5108348;28;20055;-74
2023/01/04 00:43:39;;;;;;;15.88;14.18;;;;;;;5.87;79.83;100419.56;5107035;28;20040;-73
2023/01/04 00:46:10;;;;;;;16.48;13.80;;;;;;;6.42;79.80;100510.59;5107879;28;20042;-73
2023/01/04 00:48:37;;;;;;;16.50;14.15;;;;;;;6.40;79.82;100513.25;5107771;28;20081;-73
2023/01/04 00:51:04;;;;;;;17.70;14.45;;;;;;;6.35;79.83;100512.50;5108062;28;20040;-74
2023/01/04 00:53:31;;;;;;;18.33;15.90;;;;;;;6.35;79.96;100515.13;5107982;28;20036;-73
2023/01/04 00:56:01;;;;;;;17.70;14.98;;;;;;;6.32;79.81;100509.06;5108685;28;20044;-73
2023/01/04 00:58:28;;;;;;;16.23;13.95;;;;;;;6.29;79.82;100504.72;5109406;28;20086;-73
2023/01/04 01:00:55;;;;;;;14.45;12.65;;;;;;;6.28;79.70;100518.78;5108942;28;20047;-73
2023/01/04 01:03:22;;;;;;;16.98;13.98;;;;;;;6.27;79.95;100522.31;5108819;28;20051;-73
2023/01/04 01:05:49;;;;;;;15.93;12.60;;;;;;;5.83;79.85;100453.84;5106802;28;20036;-73
2023/01/04 01:08:24;;;;;;;15.63;13.18;;;;;;;6.25;79.72;100520.59;5107096;28;20039;-73
2023/01/04 01:10:52;;;;;;;15.27;12.80;;;;;;;6.01;79.31;100482.44;5107913;28;20098;-73
2023/01/04 01:13:20;;;;;;;14.65;13.02;;;;;;;6.23;79.68;100527.66;5106681;28;20235;-73
2023/01/04 01:15:47;;;;;;;16.65;14.20;;;;;;;6.22;79.67;100529.41;5107525;28;20165;-73
2023/01/04 01:18:15;;;;;;;16.40;13.48;;;;;;;6.22;79.70;100539.09;5108334;28;20220;-73
2023/01/04 01:20:43;;;;;;;15.15;13.35;;;;;;;6.20;79.66;100532.97;5106769;28;20048;-73
2023/01/04 01:23:13;;;;;;;16.15;14.20;;;;;;;6.21;79.69;100537.34;5107374;28;20043;-73
2023/01/04 01:25:40;;;;;;;16.95;15.18;;;;;;;5.47;79.90;100426.44;5107324;28;20036;-74
2023/01/04 01:28:07;;;;;;;17.13;15.32;;;;;;;6.17;79.73;100540.94;5106654;28;20219;-74
2023/01/04 01:30:40;;;;;;;15.98;13.95;;;;;;;5.26;79.55;100409.28;5105871;28;20199;-74
2023/01/04 01:33:07;;;;;;;16.30;14.55;;;;;;;6.08;79.82;100534.94;5106465;28;20044;-74
2023/01/04 01:35:34;;;;;;;17.88;13.77;;;;;;;6.10;79.84;100548.06;5107900;28;20039;-74
2023/01/04 01:38:01;;;;;;;16.77;14.63;;;;;;;6.08;79.92;100544.59;5108547;28;20042;-74
2023/01/04 01:40:29;;;;;;;16.42;14.40;;;;;;;6.05;80.00;100548.16;5108240;28;20044;-74
2023/01/04 01:42:57;;;;;;;17.58;15.70;;;;;;;6.04;80.07;100545.53;5108557;28;20036;-74
2023/01/04 01:45:30;;;;;;;17.88;15.98;;;;;;;6.02;80.14;100542.94;5109049;28;20095;-74
2023/01/04 01:48:03;;;;;;;17.30;15.50;;;;;;;5.99;80.18;100542.13;5109038;28;20050;-74
2023/01/04 01:50:35;;;;;;;17.90;15.07;;;;;;;5.98;80.33;100541.25;5109099;28;20101;-74
2023/01/04 01:53:06;;;;;;;19.38;16.50;;;;;;;5.99;80.32;100542.13;5109626;28;20062;-74
2023/01/04 01:55:34;;;;;;;23.60;20.48;;;;;;;5.99;80.40;100537.72;5112800;28;20246;-75
2023/01/04 01:58:02;;;;;;;21.48;18.15;;;;;;;5.49;80.59;100448.31;5113029;28;20042;-74
2023/01/04 02:00:30;;;;;;;19.95;16.75;;;;;;;5.99;80.36;100521.94;5112962;28;20046;-74
2023/01/04 02:03:05;;;;;;;18.75;16.02;;;;;;;5.63;80.42;100472.59;5112061;28;20347;-74
2023/01/04 02:05:34;;;;;;;19.45;16.15;;;;;;;5.65;80.30;100476.09;5111913;28;20081;-75
2023/01/04 02:08:03;;;;;;;19.60;16.75;;;;;;;5.95;80.30;100533.41;5111582;28;20039;-75
2023/01/04 02:10:31;;;;;;;19.02;16.98;;;;;;;5.91;80.44;100526.47;5111708;28;20044;-75
2023/01/04 02:13:02;;;;;;;21.65;18.73;;;;;;;5.89;80.52;100527.41;5111453;28;20036;-75
2023/01/04 02:15:37;;;;;;;27.30;21.65;;;;;;;5.87;80.58;100522.16;5111678;28;20044;-75
2023/01/04 02:18:10;;;;;;;25.65;19.55;;;;;;;5.34;80.51;100434.53;5111235;28;20107;-74
2023/01/04 02:20:44;;;;;;;22.63;18.52;;;;;;;5.85;80.52;100523.94;5112824;28;20123;-74
2023/01/04 02:23:39;;;;;;;21.70;17.38;;;;;;;5.84;80.52;100527.47;5111335;28;20047;-74
2023/01/04 02:26:24;;;;;;;;;;;;;;;5.74;80.66;100524.13;5112335;28;20036;-74
2023/01/04 02:29:12;;;;;;;20.98;15.23;;;;;;;5.74;80.89;100521.50;5110415;28;19947;-74
2023/01/04 02:31:45;;;;;;;20.38;17.05;;;;;;;5.75;80.92;100501.34;5111024;28;20036;-75
2023/01/04 02:34:21;;;;;;;18.92;16.33;;;;;;;5.76;80.75;100513.59;5111347;28;20055;-74
2023/01/04 02:36:57;;;;;;;25.20;21.08;;;;;;;2.93;80.46;100074.25;5112432;28;20062;-74
2023/01/04 02:39:37;;;;;;;21.85;17.92;;;;;;;5.72;80.74;100514.53;5111084;28;20391;-74
2023/01/04 02:42:12;;;;;;;19.95;17.25;;;;;;;5.39;80.76;100466.88;5111256;28;20039;-74
2023/01/04 02:44:54;;;;;;;19.38;16.23;;;;;;;5.67;80.75;100514.63;5109590;28;20063;-74
2023/01/04 02:50:34;;;;;;;19.80;16.25;;;;;;;5.63;80.74;100504.16;5108947;28;20093;-74
2023/01/04 02:53:05;;;;;;;20.20;17.02;;;;;;;5.61;80.99;100504.19;5091499;28;20088;-73
2023/01/04 02:55:45;;;;;;;17.98;14.60;;;;;;;5.36;80.82;100461.66;5111123;28;20044;-74
2023/01/04 02:58:26;;;;;;;24.30;18.67;;;;;;;5.62;80.78;100499.81;5110580;28;20046;-74
2023/01/04 03:06:52;;;;;;;21.05;17.27;;;;;;;5.59;80.83;100484.06;5109496;28;20055;-75
2023/01/04 03:09:23;;;;;;;19.75;17.65;;;;;;;5.58;80.71;100482.34;5109556;28;20202;-74
2023/01/04 03:14:42;;;;;;;19.30;16.40;;;;;;;5.55;80.70;100488.53;5109555;28;20036;-74
2023/01/04 03:17:13;;;;;;;21.02;17.08;;;;;;;5.09;80.55;100418.28;5109045;28;20276;-73
2023/01/04 03:19:53;;;;;;;18.10;15.95;;;;;;;5.15;80.80;100421.72;5110474;28;20046;-73
2023/01/04 03:36:38;;;;;;;19.95;17.20;;;;;;;5.40;80.71;100483.50;5111078;28;20043;-74
2023/01/04 03:50:38;;;;;;;22.25;17.45;;;;;;;5.38;80.44;100469.53;5111368;28;20101;-74
2023/01/04 03:53:07;;;;;;;22.83;16.55;;;;;;;4.66;80.27;100364.66;5109633;28;20086;-74
2023/01/04 03:55:37;;;;;;;18.35;15.38;;;;;;;5.35;80.40;100457.28;5109054;28;20051;-74
2023/01/04 03:58:03;;;;;;;19.38;16.58;;;;;;;5.34;80.33;100459.94;5092818;28;20032;-74
2023/01/04 04:00:31;;;;;;;20.67;16.17;;;;;;;4.74;80.31;100354.91;5111349;28;20036;-74
2023/01/04 04:03:06;;;;;;;19.75;16.63;;;;;;;5.09;80.16;100425.31;5111911;28;20047;-74
2023/01/04 04:08:26;;;;;;;19.48;15.35;;;;;;;5.27;80.25;100445.19;5097168;28;20048;-74
2023/01/04 04:10:53;;;;;;;18.83;15.65;;;;;;;5.19;80.10;100450.56;5110760;28;20149;-74
2023/01/04 04:13:21;;;;;;;18.77;15.52;;;;;;;5.24;80.18;100450.47;5111343;28;20042;-74
2023/01/04 04:15:48;;;;;;;19.20;16.23;;;;;;;5.23;80.26;100448.75;5111170;28;20097;-74
2023/01/04 04:18:15;;;;;;;19.67;16.38;;;;;;;5.21;80.17;100446.13;5111531;28;20044;-74
2023/01/04 04:20:42;;;;;;;18.98;16.05;;;;;;;5.20;80.12;100456.69;5112878;28;20036;-74
2023/01/04 04:23:09;;;;;;;21.60;17.00;;;;;;;5.17;80.19;100459.34;5111453;28;20334;-74
2023/01/04 04:25:37;;;;;;;18.80;14.88;;;;;;;5.15;80.20;100456.75;5110287;28;20035;-73
2023/01/04 04:28:07;;;;;;;17.00;14.85;;;;;;;5.07;80.11;100441.09;5110245;28;20078;-74
2023/01/04 04:30:33;;;;;;;18.33;15.23;;;;;;;5.12;80.21;100454.16;5108761;28;20058;-73
2023/01/04 04:33:00;;;;;;;21.08;16.45;;;;;;;5.08;80.21;100452.47;5108731;28;20291;-74
2023/01/04 04:35:27;;;;;;;18.77;15.23;;;;;;;5.03;80.19;100447.28;5110225;28;20047;-73
2023/01/04 04:37:54;;;;;;;19.10;13.77;;;;;;;4.99;80.30;100448.22;5109924;28;20254;-73
2023/01/04 04:43:09;;;;;;;20.13;15.50;;;;;;;4.59;80.31;100378.78;5109508;28;20048;-73
2023/01/04 04:45:36;;;;;;;21.73;15.23;;;;;;;4.98;80.03;100443.00;5109840;28;20051;-73
2023/01/04 04:48:04;;;;;;;18.05;15.57;;;;;;;4.95;80.29;100440.41;5110122;28;20046;-73
2023/01/04 04:50:31;;;;;;;17.20;13.93;;;;;;;4.92;80.27;100446.59;5108616;28;20044;-73
2023/01/04 04:52:57;;;;;;;17.75;14.63;;;;;;;4.66;80.25;100401.41;5108631;28;20042;-73
2023/01/04 04:55:24;;;;;;;18.73;14.90;;;;;;;4.87;80.38;100440.50;5091898;28;20174;-74
2023/01/04 04:57:51;;;;;;;18.58;15.75;;;;;;;4.87;80.36;100451.00;5108389;28;20044;-74
2023/01/04 05:00:19;;;;;;;19.15;14.93;;;;;;;4.46;80.40;100383.31;5108442;28;20047;-73
2023/01/04 05:02:46;;;;;;;17.98;15.00;;;;;;;4.86;80.42;100453.66;5108631;28;20333;-73
2023/01/04 05:05:15;;;;;;;19.73;14.48;;;;;;;4.06;80.43;100330.47;5109032;28;20052;-74
2023/01/04 05:07:42;;;;;;;21.70;16.15;;;;;;;4.84;80.37;100444.94;5109865;28;20035;-74
2023/01/04 05:10:13;;;;;;;21.73;17.25;;;;;;;3.98;80.15;100309.59;5109270;28;20044;-73
2023/01/04 05:15:26;;;;;;;19.00;15.00;;;;;;;4.57;80.40;100454.06;5108998;28;20087;-74
2023/01/04 05:17:53;;;;;;;22.13;17.10;;;;;;;4.49;80.64;100459.41;5109426;28;20237;-74
2023/01/04 05:20:20;;;;;;;21.73;16.50;;;;;;;4.38;80.63;100454.31;5109423;28;20044;-74
2023/01/04 05:22:46;;;;;;;19.25;17.02;;;;;;;4.30;80.84;100453.53;5109014;28;20066;-73
2023/01/04 05:25:13;;;;;;;22.25;16.77;;;;;;;4.22;80.96;100449.25;5109796;28;20107;-73
2023/01/04 05:27:40;;;;;;;22.42;18.40;;;;;;;4.24;80.96;100448.34;5109068;28;20040;-74
2023/01/04 05:32:56;;;;;;;22.73;17.48;;;;;;;4.22;80.84;100444.00;5108700;28;20043;-73
2023/01/04 05:35:23;;;;;;;22.42;17.30;;;;;;;4.22;80.90;100449.25;5109044;28;20288;-73
2023/01/04 05:37:49;;;;;;;22.77;17.38;;;;;;;4.18;80.83;100437.91;5108008;28;20036;-74
2023/01/04 05:40:16;;;;;;;21.60;16.60;;;;;;;4.18;80.88;100443.16;5108589;28;20052;-73
2023/01/04 05:42:42;;;;;;;24.48;18.38;;;;;;;4.20;80.70;100441.41;5108086;28;20040;-74
2023/01/04 05:45:10;;;;;;;19.98;15.70;;;;;;;3.65;80.68;100367.69;5107507;28;20063;-74
2023/01/04 05:47:37;;;;;;;22.70;17.95;;;;;;;4.15;80.67;100433.56;5107303;28;20050;-74
2023/01/04 05:50:06;;;;;;;27.83;17.13;;;;;;;4.15;80.81;100435.31;5107754;28;20223;-74
2023/01/04 05:52:33;;;;;;;22.02;16.73;;;;;;;4.15;80.94;100432.69;5108329;28;20074;-73
2023/01/04 05:55:00;;;;;;;19.38;15.25;;;;;;;3.57;80.89;100317.13;5107471;28;20047;-73
2023/01/04 05:57:26;;;;;;;20.20;15.07;;;;;;;4.18;80.83;100419.53;5107115;28;20040;-73
2023/01/04 05:59:53;;;;;;;18.73;15.07;;;;;;;4.22;80.84;100418.63;5107107;28;20032;-74
2023/01/04 06:02:22;;;;;;;17.88;13.98;;;;;;;4.17;80.67;100410.78;5107473;28;20048;-74
2023/01/04 06:04:49;;;;;;;17.60;13.95;;;;;;;4.23;80.65;100412.50;5107319;28;20046;-74
2023/01/04 06:07:18;;;;;;;19.33;16.00;;;;;;;4.22;80.72;100404.66;5107779;28;20065;-74
2023/01/04 06:09:45;;;;;;;17.77;14.20;;;;;;;4.22;80.78;100407.28;5090777;28;20044;-74
2023/01/04 06:12:13;;;;;;;17.02;13.75;;;;;;;4.10;80.62;100389.91;5091730;28;20048;-73
2023/01/04 06:14:39;;;;;;;18.15;14.43;;;;;;;4.26;80.60;100420.34;5109049;28;20048;-74
2023/01/04 06:17:07;;;;;;;16.83;13.15;;;;;;;4.28;80.67;100429.06;5109403;28;20051;-74
2023/01/04 06:19:34;;;;;;;16.42;14.13;;;;;;;4.13;80.44;100402.97;5108414;28;20058;-74
2023/01/04 06:22:01;;;;;;;18.30;15.13;;;;;;;3.08;80.44;100233.81;5108292;28;20048;-74
2023/01/04 06:24:29;;;;;;;18.35;14.35;;;;;;;3.46;80.29;100284.03;5108103;28;20032;-74
2023/01/04 06:26:56;;;;;;;17.27;13.93;;;;;;;4.31;80.43;100422.91;5107453;28;20032;-73
2023/01/04 06:29:22;;;;;;;18.17;13.55;;;;;;;4.30;80.27;100426.41;5108642;28;20200;-74
2023/01/04 06:31:49;;;;;;;17.70;15.02;;;;;;;4.28;80.30;100429.06;5107216;28;20074;-74
2023/01/04 06:34:16;;;;;;;17.42;14.25;;;;;;;4.26;80.12;100420.34;5107456;28;20059;-74
2023/01/04 06:36:43;;;;;;;19.05;15.60;;;;;;;4.26;80.26;100427.34;5106294;28;20054;-74
2023/01/04 06:39:10;;;;;;;21.42;14.40;;;;;;;4.24;80.21;100429.97;5107213;28;20047;-73
2023/01/04 06:41:38;;;;;;;19.60;15.93;;;;;;;4.20;80.23;100433.53;5109592;28;20047;-73
2023/01/04 06:44:06;;;;;;;20.88;15.85;;;;;;;4.18;80.26;100427.41;5110048;28;20048;-74
2023/01/04 06:46:32;;;;;;;19.15;14.25;;;;;;;3.80;80.25;100362.28;5110477;28;20284;-74
2023/01/04 06:48:59;;;;;;;17.75;14.25;;;;;;;4.16;80.21;100419.56;5109618;28;20199;-74
2023/01/04 06:51:26;;;;;;;19.35;15.10;;;;;;;4.14;80.20;100421.31;5109941;28;20295;-73
2023/01/04 06:53:53;;;;;;;21.30;15.88;;;;;;;4.12;80.19;100423.09;5110401;28;20036;-74
2023/01/04 06:56:20;;;;;;;19.52;14.95;;;;;;;4.09;80.13;100423.13;5110799;28;20043;-73
2023/01/04 06:58:50;;;;;;;19.33;14.75;;;;;;;4.07;80.11;100409.16;5109623;28;20036;-73
2023/01/04 07:01:17;;;;;;;18.30;14.02;;;;;;;4.08;80.16;100424.03;5112010;28;20063;-74
2023/01/04 07:03:44;;;;;;;18.70;13.85;;;;;;;4.09;80.05;100417.03;5112018;28;20031;-73
2023/01/04 07:06:11;;;;;;;25.20;15.75;;;;;;;4.09;79.97;100427.50;5110852;28;20036;-74
2023/01/04 07:08:37;;;;;;;21.48;15.95;;;;;;;4.06;79.89;100417.06;5111301;28;20036;-74
2023/01/04 07:11:04;;;;;;;20.90;15.75;;;;;;;4.06;79.90;100409.19;5111825;28;20058;-74
2023/01/04 07:13:31;;;;;;;21.10;16.63;;;;;;;2.79;79.82;100195.72;5112146;28;20052;-74
2023/01/04 07:15:59;;;;;;;21.17;15.85;;;;;;;3.99;79.79;100411.00;5111919;28;20036;-74
2023/01/04 07:18:26;;;;;;;22.15;15.23;;;;;;;3.56;79.74;100338.97;5111409;28;20036;-74
2023/01/04 07:20:53;;;;;;;20.98;16.23;;;;;;;3.35;79.65;100306.00;5111011;28;20051;-73
2023/01/04 07:23:19;;;;;;;21.13;15.32;;;;;;;3.88;79.66;100407.66;5109809;28;20036;-74
2023/01/04 07:25:46;;;;;;;22.35;15.20;;;;;;;3.88;nan;100407.66;5110308;28;20040;-74
2023/01/04 07:29:13;;;;;;;19.50;15.95;;;;;;;3.87;79.49;100419.03;5110660;28;20040;-74
2023/01/04 07:31:05;;;;;;;22.83;16.73;;;;;;;3.81;79.28;100425.19;5110509;28;20044;-74
2023/01/04 07:33:32;;;;;;;23.52;16.20;;;;;;;3.79;79.54;100420.84;5110310;28;20044;-73
2023/01/04 07:36:02;;;;;;;19.80;16.65;;;;;;;3.39;79.49;100341.75;5109865;28;20050;-74
2023/01/04 07:38:29;;;;;;;16.58;14.35;;;;;;;3.81;79.57;100408.59;5109017;28;20115;-73
2023/01/04 07:40:56;;;;;;;20.20;15.13;;;;;;;3.81;79.56;100400.72;5092312;28;20127;-74
2023/01/04 07:43:22;;;;;;;21.75;15.48;;;;;;;3.81;79.40;100405.97;5109602;28;20040;-74
2023/01/04 07:45:49;;;;;;;20.02;15.98;;;;;;;3.79;79.61;100408.63;5108796;28;20044;-74
2023/01/04 07:48:18;;;;;;;19.80;16.40;;;;;;;3.75;79.25;100411.28;5109623;28;20040;-74
2023/01/04 07:50:45;;;;;;;20.70;16.23;;;;;;;3.76;79.46;100402.53;5108259;28;20047;-74
2023/01/04 07:53:12;;;;;;;18.05;15.25;;;;;;;3.77;79.52;100401.66;5109302;28;20039;-73
2023/01/04 07:55:39;;;;;;;19.60;15.52;;;;;;;3.79;79.57;100399.88;5109636;28;20052;-74
2023/01/04 07:58:06;;;;;;;16.73;13.70;;;;;;;3.81;79.54;100398.97;5109310;28;20040;-74
2023/01/04 08:00:33;;;;;;;17.27;14.75;;;;;;;3.85;79.60;100391.94;5109219;28;20050;-74
2023/01/04 08:03:00;;;;;;;20.00;16.33;;;;;;;3.92;79.45;100391.00;5108385;28;20185;-74
2023/01/04 08:05:28;;;;;;;19.92;14.80;;;;;;;4.01;79.87;100390.00;5109292;28;20051;-73
2023/01/04 08:07:55;;;;;;;21.88;16.38;;;;;;;4.10;79.49;100389.91;5108274;28;20039;-74
2023/01/04 08:10:22;;;;;;;18.45;15.70;;;;;;;4.16;79.54;100398.56;5107815;28;20047;-74
2023/01/04 08:12:49;;;;;;;17.08;14.13;;;;;;;4.27;79.48;100401.06;5067216;28;20040;-74
2023/01/04 08:15:16;;;;;;;18.55;13.90;;;;;;;4.40;79.30;100396.53;5067306;28;20041;-74
2023/01/04 08:17:43;;;;;;;17.63;14.68;;;;;;;4.53;79.12;100386.72;5067164;28;20041;-74
2023/01/04 08:20:10;;;;;;;18.90;14.85;;;;;;;4.02;78.62;100292.94;5067408;28;20037;-74
2023/01/04 08:22:39;;;;;;;19.02;15.95;;;;;;;4.70;78.48;100382.09;5067710;28;20047;-74
2023/01/04 08:25:06;;;;;;;19.58;16.63;;;;;;;4.83;78.29;100386.28;5067103;28;20045;-73
2023/01/04 08:27:33;;;;;;;18.13;15.25;;;;;;;4.93;78.02;100402.81;5068539;28;20033;-74
2023/01/04 08:30:00;;;;;;;18.58;14.48;;;;;;;5.02;77.70;100385.13;5067970;28;20051;-74
2023/01/04 08:32:27;;;;;;;18.55;14.98;;;;;;;5.13;77.57;100371.81;5067941;28;20049;-74
2023/01/04 08:34:54;;;;;;;17.83;14.75;;;;;;;5.19;77.26;100365.59;5068315;28;20047;-74
2023/01/04 08:37:21;;;;;;;18.00;15.60;;;;;;;5.34;77.24;100370.56;5067592;28;20099;-74
2023/01/04 08:39:49;;;;;;;18.30;15.48;;;;;;;5.40;76.56;100368.69;5066655;28;20047;-74
2023/01/04 08:42:16;;;;;;;18.98;15.80;;;;;;;5.48;76.61;100368.56;5067519;28;20045;-74
2023/01/04 08:44:43;;;;;;;19.48;16.08;;;;;;;5.58;76.29;100366.63;5067196;28;20041;-74
2023/01/04 08:47:10;;;;;;;20.05;15.77;;;;;;;5.64;76.24;100361.25;5067046;28;20051;-74
2023/01/04 08:49:36;;;;;;;17.85;15.60;;;;;;;5.58;76.41;100338.56;5067567;28;20044;-74
2023/01/04 08:52:04;;;;;;;16.88;13.77;;;;;;;5.81;76.07;100355.66;5067331;28;20045;-74
2023/01/04 08:54:30;;;;;;;19.83;14.27;;;;;;;5.90;76.06;100358.13;5066338;28;20033;-74
2023/01/04 08:56:58;;;;;;;16.60;14.27;;;;;;;6.03;75.76;100354.34;5067511;28;20045;-74
2023/01/04 08:59:25;;;;;;;15.80;13.18;;;;;;;6.12;75.43;100348.88;5066395;28;20043;-74
2023/01/04 09:01:52;;;;;;;16.08;11.48;;;;;;;6.23;75.15;100341.63;5067731;28;20045;-74
2023/01/04 09:04:19;;;;;;;16.02;11.77;;;;;;;6.35;74.91;100341.34;5067228;28;20037;-74
2023/01/04 09:06:46;;;;;;;14.60;11.68;;;;;;;6.49;74.53;100345.44;5067850;28;20319;-74
2023/01/04 09:09:13;;;;;;;12.50;10.63;;;;;;;6.62;74.34;100342.47;5067212;28;20089;-74
2023/01/04 09:11:39;;;;;;;12.23;9.80;;;;;;;6.78;74.08;100332.44;5087591;28;20209;-74
2023/01/04 09:14:09;;;;;;;13.38;11.05;;;;;;;6.91;73.88;100335.69;5108232;28;20043;-74
2023/01/04 09:16:36;;;;;;;12.93;10.90;;;;;;;6.98;73.28;100321.44;5107321;28;20050;-74
2023/01/04 09:19:04;;;;;;;11.15;9.77;;;;;;;6.38;73.12;100193.81;5106969;28;20054;-74
2023/01/04 09:21:31;;;;;;;12.68;11.05;;;;;;;7.25;72.99;100315.47;5107617;28;20036;-74
2023/01/04 09:23:58;;;;;;;12.13;10.85;;;;;;;7.08;72.64;100264.94;5107169;28;20211;-74
2023/01/04 09:26:24;;;;;;;13.32;10.90;;;;;;;7.50;72.19;100313.06;5106747;28;20202;-74
2023/01/04 09:28:52;;;;;;;14.68;11.43;;;;;;;7.61;72.04;100308.34;5105793;28;20036;-74
2023/01/04 09:31:22;;;;;;;12.02;10.02;;;;;;;7.71;71.13;100311.59;5106756;28;20054;-74
2023/01/04 09:33:49;;;;;;;12.48;10.27;;;;;;;7.87;71.53;100307.63;5106915;28;20040;-74
2023/01/04 09:36:17;;;;;;;12.93;10.52;;;;;;;8.00;70.93;100295.78;5105913;28;20040;-74
2023/01/04 09:38:44;;;;;;;12.93;9.95;;;;;;;8.12;70.77;100293.69;5106824;28;20047;-74
2023/01/04 09:41:20;;;;;;;11.52;10.02;;;;;;;8.25;69.64;100290.63;5107061;28;20039;-74
2023/01/04 09:43:49;;;;;;;11.20;8.77;;;;;;;8.38;70.19;100283.19;5106353;28;20231;-74
2023/01/04 09:46:25;;;;;;;13.95;10.73;;;;;;;8.46;69.71;100270.59;5107641;28;20054;-74
2023/01/04 09:48:59;;;;;;;13.43;10.13;;;;;;;8.24;69.14;100214.09;5106321;28;20040;-74
2023/01/04 09:51:32;;;;;;;13.45;9.73;;;;;;;8.53;68.38;100242.19;5107141;28;20051;-74
2023/01/04 09:54:04;;;;;;;11.23;10.13;;;;;;;8.83;68.60;100264.97;5106871;28;20054;-74
2023/01/04 09:56:34;;;;;;;10.10;9.02;;;;;;;8.92;68.66;100255.88;5105505;28;20046;-74
2023/01/04 09:59:03;;;;;;;9.18;7.70;;;;;;;9.03;68.76;100244.91;5106918;28;20047;-74
2023/01/04 10:01:40;;;;;;;12.98;8.35;;;;;;;9.13;67.43;100241.03;5105678;28;20234;-74
2023/01/04 10:04:15;;;;;;;7.95;7.10;;;;;;;9.19;66.39;100239.03;5106145;28;20036;-74
2023/01/04 10:06:42;;;;;;;8.05;6.50;;;;;;;8.41;67.83;100084.97;5105607;28;20043;-74
2023/01/04 10:09:13;;;;;;;7.07;6.38;;;;;;;9.38;67.14;100230.47;5105741;28;20054;-74
2023/01/04 10:11:53;;;;;;;7.45;6.50;;;;;;;9.49;66.02;100231.84;5106479;28;20194;-74
2023/01/04 10:14:31;;;;;;;7.93;6.63;;;;;;;9.58;65.20;100223.56;5108597;28;20040;-74
2023/01/04 10:17:11;;;;;;;9.02;6.38;;;;;;;9.76;64.66;100224.66;5111395;28;20071;-74
2023/01/04 10:19:52;;;;;;;9.60;7.20;;;;;;;9.89;64.23;100211.81;5111171;28;20043;-74
2023/01/04 10:22:25;;;;;;;9.40;5.90;;;;;;;10.00;65.73;100201.66;5110421;28;20058;-74
2023/01/04 10:25:00;;;;;;;7.20;5.00;;;;;;;10.15;65.02;100197.53;5110149;28;20047;-74
2023/01/04 10:27:37;;;;;;;8.48;5.65;;;;;;;10.30;64.37;100188.13;5109878;28;20043;-74
2023/01/04 10:30:21;;;;;;;7.22;5.20;;;;;;;10.45;61.67;100185.69;5110640;28;20032;-74
2023/01/04 10:32:54;;;;;;;6.65;4.72;;;;;;;10.46;62.69;100184.78;5110310;28;20054;-74
2023/01/04 10:35:23;;;;;;;6.88;5.88;;;;;;;10.53;64.18;100180.06;5109709;28;20051;-74
2023/01/04 10:37:54;;;;;;;5.38;4.65;;;;;;;10.54;63.22;100179.16;5110683;28;20079;-74
2023/01/04 10:40:21;;;;;;;7.18;5.63;;;;;;;10.56;64.04;100172.00;5109630;28;20062;-74
2023/01/04 10:43:00;;;;;;;6.22;4.95;;;;;;;10.73;61.23;100163.31;5110026;28;20050;-74
2023/01/04 10:45:36;;;;;;;7.03;4.97;;;;;;;10.47;61.33;100119.38;5110037;28;20058;-74
2023/01/04 10:48:11;;;;;;;7.60;4.60;;;;;;;10.68;61.24;100141.44;5109835;28;20038;-74
2023/01/04 10:50:48;;;;;;;6.28;4.60;;;;;;;10.99;62.17;100164.88;5109276;28;20292;-74
2023/01/04 10:53:19;;;;;;;8.98;5.43;;;;;;;11.20;62.77;100161.28;5109981;28;20040;-74
2023/01/04 10:55:52;;;;;;;5.43;4.45;;;;;;;11.23;62.15;100154.03;5109750;28;20044;-74
2023/01/04 10:58:27;;;;;;;6.70;4.47;;;;;;;11.26;60.58;100144.22;5109574;28;20044;-74
2023/01/04 11:01:00;;;;;;;7.35;6.03;;;;;;;11.26;61.05;100144.22;5109460;28;20119;-74
2023/01/04 11:03:35;;;;;;;7.55;4.57;;;;;;;11.34;60.53;100142.06;5109387;28;20047;-74
2023/01/04 11:06:08;;;;;;;;;;;;;;;11.39;57.76;100142.72;5110315;28;20036;-75
2023/01/04 11:08:41;;;;;;;5.25;4.18;;;;;;;11.05;61.81;100069.97;5109786;28;19916;-74
2023/01/04 11:11:12;;;;;;;6.25;4.47;;;;;;;11.48;60.35;100142.28;5108472;28;20078;-74
2023/01/04 11:13:39;;;;;;;5.75;4.93;;;;;;;11.47;62.00;100122.84;5109427;28;20040;-74
2023/01/04 11:16:07;;;;;;;5.90;4.05;;;;;;;11.07;61.86;100057.50;5108268;28;20058;-74
2023/01/04 11:18:40;;;;;;;7.03;4.55;;;;;;;11.01;60.88;100028.59;5109110;28;20044;-74
2023/01/04 11:21:12;;;;;;;4.95;4.32;;;;;;;11.66;60.10;100119.31;5108693;28;20308;-75
2023/01/04 11:23:39;;;;;;;9.85;5.45;;;;;;;11.71;61.04;100101.38;5108561;28;20052;-74
2023/01/04 11:26:10;;;;;;;22.15;12.05;;;;;;;11.79;60.25;100088.59;5107670;28;20036;-74
2023/01/04 11:28:42;;;;;;;16.40;14.65;;;;;;;11.84;60.30;100083.91;5109253;28;20346;-75
2023/01/04 11:31:17;;;;;;;10.57;8.00;;;;;;;11.92;58.29;100086.19;5109746;28;20039;-74
2023/01/04 11:33:57;;;;;;;6.63;5.47;;;;;;;11.94;57.44;100073.72;5109720;28;20304;-74
2023/01/04 11:36:36;;;;;;;6.05;4.20;;;;;;;11.99;57.46;100077.84;5109813;28;20052;-74
2023/01/04 11:39:05;;;;;;;17.95;11.82;;;;;;;11.55;59.60;99987.09;5108818;28;20050;-75
2023/01/04 11:41:32;;;;;;;12.95;10.68;;;;;;;12.13;59.98;100064.78;5109218;28;20107;-74
2023/01/04 11:44:00;;;;;;;10.55;7.63;;;;;;;12.15;59.81;100057.59;5109824;28;20040;-75
2023/01/04 11:46:29;;;;;;;7.05;5.90;;;;;;;12.15;59.84;100057.59;5109952;28;20059;-75
2023/01/04 11:48:57;;;;;;;6.85;5.82;;;;;;;12.15;58.93;100059.38;5110087;28;20036;-75
2023/01/04 11:51:38;;;;;;;5.53;4.38;;;;;;;11.67;56.96;99975.88;5109318;28;20115;-75
2023/01/04 11:54:17;;;;;;;5.60;4.32;;;;;;;11.92;59.65;99998.53;5109973;28;20061;-75
2023/01/04 11:56:59;;;;;;;5.45;4.32;;;;;;;12.26;56.30;100054.41;5109693;28;20060;-75
2023/01/04 11:59:26;;;;;;;10.23;7.25;;;;;;;12.22;59.38;100020.09;5110247;28;20044;-75
2023/01/04 12:02:21;;;;;;;7.93;6.40;;;;;;;12.29;55.20;100029.47;5110645;28;20040;-75
2023/01/04 12:04:51;;;;;;;10.07;8.73;;;;;;;12.06;58.44;99990.78;5110407;28;20346;-75
2023/01/04 12:07:28;;;;;;;14.27;12.50;;;;;;;12.40;56.29;100029.78;5110194;28;20103;-75
2023/01/04 12:09:55;;;;;;;15.68;14.15;;;;;;;12.53;58.54;100030.88;5109948;28;20047;-75
2023/01/04 12:12:27;;;;;;;15.82;13.63;;;;;;;12.59;58.29;100027.03;5110188;28;20052;-74
2023/01/04 12:14:55;;;;;;;14.35;12.77;;;;;;;12.58;58.28;100020.00;5109487;28;20038;-74
2023/01/04 12:17:25;;;;;;;12.90;11.23;;;;;;;12.58;57.84;100012.88;5109539;28;20246;-74
2023/01/04 12:19:56;;;;;;;15.05;12.57;;;;;;;12.51;57.56;100009.69;5108942;28;20044;-75